sensor_id;sensor_type;location;lat;lon;timestamp;pressure;altitude;pressure_sealevel;temperature;humidity
26438;BME280;14133;48.430;9.888;2022-07-04T00:00:34;95300.50;;;20.38;59.91
26438;BME280;14133;48.430;9.888;2022-07-04T00:10:17;95297.41;;;20.54;60.00
26438;BME280;14133;48.430;9.888;2022-07-04T00:19:58;95282.31;;;20.71;60.70
26438;BME280;14133;48.430;9.888;2022-07-04T00:29:38;95235.09;;;20.54;62.38
26438;BME280;14133;48.430;9.888;2022-07-04T00:39:19;95236.25;;;20.52;61.39
26438;BME280;14133;48.430;9.888;2022-07-04T00:49:02;95247.88;;;20.53;63.21
26438;BME280;14133;48.430;9.888;2022-07-04T00:58:43;95236.66;;;20.36;63.08
26438;BME280;14133;48.430;9.888;2022-07-04T01:08:24;95227.38;;;20.27;63.85
26438;BME280;14133;48.430;9.888;2022-07-04T01:18:04;95231.25;;;20.22;64.67
26438;BME280;14133;48.430;9.888;2022-07-04T01:27:45;95226.59;;;20.19;64.85
26438;BME280;14133;48.430;9.888;2022-07-04T01:37:25;95200.66;;;19.96;64.44
26438;BME280;14133;48.430;9.888;2022-07-04T01:47:06;95252.09;;;20.07;63.91
26438;BME280;14133;48.430;9.888;2022-07-04T01:56:46;95249.00;;;20.05;65.08
26438;BME280;14133;48.430;9.888;2022-07-04T02:06:27;95240.09;;;20.04;63.76
26438;BME280;14133;48.430;9.888;2022-07-04T02:16:08;95241.25;;;20.07;63.86
26438;BME280;14133;48.430;9.888;2022-07-04T02:25:48;95243.56;;;19.98;63.57
26438;BME280;14133;48.430;9.888;2022-07-04T02:35:29;95247.44;;;19.93;63.42
26438;BME280;14133;48.430;9.888;2022-07-04T02:45:09;95271.81;;;20.00;64.23
26438;BME280;14133;48.430;9.888;2022-07-04T02:54:50;95286.47;;;19.88;63.38
26438;BME280;14133;48.430;9.888;2022-07-04T03:04:32;95320.03;;;19.73;64.46
26438;BME280;14133;48.430;9.888;2022-07-04T03:14:13;95293.78;;;19.81;69.03
26438;BME280;14133;48.430;9.888;2022-07-04T03:23:54;95295.69;;;19.73;69.61
26438;BME280;14133;48.430;9.888;2022-07-04T03:33:40;95309.59;;;19.71;70.24
26438;BME280;14133;48.430;9.888;2022-07-04T03:43:20;95284.78;;;19.51;70.50
26438;BME280;14133;48.430;9.888;2022-07-04T03:53:01;95328.09;;;19.62;71.39
26438;BME280;14133;48.430;9.888;2022-07-04T04:02:41;95326.84;;;19.45;72.54
26438;BME280;14133;48.430;9.888;2022-07-04T04:12:21;95329.81;;;19.25;73.26
26438;BME280;14133;48.430;9.888;2022-07-04T04:22:02;95336.09;;;19.37;72.57
26438;BME280;14133;48.430;9.888;2022-07-04T04:31:42;95347.66;;;19.34;72.28
26438;BME280;14133;48.430;9.888;2022-07-04T04:41:23;95350.69;;;19.25;71.23
26438;BME280;14133;48.430;9.888;2022-07-04T04:51:03;95375.53;;;19.41;70.54
26438;BME280;14133;48.430;9.888;2022-07-04T05:00:44;95391.75;;;19.41;71.68
26438;BME280;14133;48.430;9.888;2022-07-04T05:10:24;95369.91;;;19.12;73.51
26438;BME280;14133;48.430;9.888;2022-07-04T05:20:05;95416.44;;;19.40;73.62
26438;BME280;14133;48.430;9.888;2022-07-04T05:29:45;95410.16;;;19.21;74.28
26438;BME280;14133;48.430;9.888;2022-07-04T05:39:26;95415.97;;;19.23;74.72
26438;BME280;14133;48.430;9.888;2022-07-04T05:49:06;95418.72;;;19.30;75.81
26438;BME280;14133;48.430;9.888;2022-07-04T05:58:47;95434.22;;;19.37;76.04
26438;BME280;14133;48.430;9.888;2022-07-04T06:08:27;95387.28;;;19.11;77.68
26438;BME280;14133;48.430;9.888;2022-07-04T06:18:08;95436.94;;;19.41;75.44
26438;BME280;14133;48.430;9.888;2022-07-04T06:27:49;95435.81;;;19.45;77.24
26438;BME280;14133;48.430;9.888;2022-07-04T06:37:31;95442.03;;;19.53;75.77
26438;BME280;14133;48.430;9.888;2022-07-04T06:47:12;95449.41;;;19.60;78.66
26438;BME280;14133;48.430;9.888;2022-07-04T06:56:52;95439.81;;;19.63;79.12
26438;BME280;14133;48.430;9.888;2022-07-04T07:06:32;95387.50;;;19.40;80.35
26438;BME280;14133;48.430;9.888;2022-07-04T07:16:13;95451.28;;;19.49;77.36
26438;BME280;14133;48.430;9.888;2022-07-04T07:25:54;95438.66;;;19.67;77.08
26438;BME280;14133;48.430;9.888;2022-07-04T07:35:34;95423.56;;;19.66;73.88
26438;BME280;14133;48.430;9.888;2022-07-04T07:45:15;95410.47;;;19.75;75.62
26438;BME280;14133;48.430;9.888;2022-07-04T07:54:55;95401.31;;;19.87;73.06
26438;BME280;14133;48.430;9.888;2022-07-04T08:04:35;95396.63;;;19.84;73.25
26438;BME280;14133;48.430;9.888;2022-07-04T08:14:17;95382.81;;;20.04;71.76
26438;BME280;14133;48.430;9.888;2022-07-04T08:23:57;95341.84;;;20.16;73.65
26438;BME280;14133;48.430;9.888;2022-07-04T08:33:38;95365.09;;;20.28;71.59
26438;BME280;14133;48.430;9.888;2022-07-04T08:43:22;95367.06;;;20.42;71.09
26438;BME280;14133;48.430;9.888;2022-07-04T08:53:15;95371.31;;;20.54;70.24
26438;BME280;14133;48.430;9.888;2022-07-04T09:03:01;95359.75;;;20.72;70.09
26438;BME280;14133;48.430;9.888;2022-07-04T09:12:42;95378.38;;;20.80;66.64
26438;BME280;14133;48.430;9.888;2022-07-04T09:22:26;95339.22;;;20.67;67.24
26438;BME280;14133;48.430;9.888;2022-07-04T09:32:06;95396.56;;;21.05;65.09
26438;BME280;14133;48.430;9.888;2022-07-04T09:42:01;95408.94;;;20.95;66.11
26438;BME280;14133;48.430;9.888;2022-07-04T09:51:44;95416.69;;;20.86;65.42
26438;BME280;14133;48.430;9.888;2022-07-04T10:01:25;95383.78;;;20.95;66.29
26438;BME280;14133;48.430;9.888;2022-07-04T10:11:06;95375.25;;;21.15;66.00
26438;BME280;14133;48.430;9.888;2022-07-04T10:20:48;95385.31;;;21.28;66.30
26438;BME280;14133;48.430;9.888;2022-07-04T10:30:34;95388.41;;;21.31;66.12
26438;BME280;14133;48.430;9.888;2022-07-04T10:40:39;95389.19;;;21.27;65.90
26438;BME280;14133;48.430;9.888;2022-07-04T10:50:29;95374.47;;;21.43;67.61
26438;BME280;14133;48.430;9.888;2022-07-04T11:00:10;95383.75;;;21.46;66.58
26438;BME280;14133;48.430;9.888;2022-07-04T11:19:59;95368.22;;;21.57;62.82
26438;BME280;14133;48.430;9.888;2022-07-04T11:29:49;95351.53;;;21.55;65.61
26438;BME280;14133;48.430;9.888;2022-07-04T11:39:30;95355.03;;;21.59;65.20
26438;BME280;14133;48.430;9.888;2022-07-04T11:49:11;95331.75;;;21.65;64.93
26438;BME280;14133;48.430;9.888;2022-07-04T11:58:52;95326.34;;;21.69;65.38
26438;BME280;14133;48.430;9.888;2022-07-04T12:08:32;95329.44;;;21.67;65.91
26438;BME280;14133;48.430;9.888;2022-07-04T12:28:03;95305.28;;;21.98;64.22
26438;BME280;14133;48.430;9.888;2022-07-04T12:38:00;95300.66;;;21.84;64.36
26438;BME280;14133;48.430;9.888;2022-07-04T12:47:47;95299.50;;;21.89;64.35
26438;BME280;14133;48.430;9.888;2022-07-04T12:57:28;95268.03;;;21.95;64.42
26438;BME280;14133;48.430;9.888;2022-07-04T13:07:14;95256.38;;;22.02;64.73
26438;BME280;14133;48.430;9.888;2022-07-04T13:16:54;95254.06;;;22.00;65.35
26438;BME280;14133;48.430;9.888;2022-07-04T13:26:35;95252.94;;;21.91;65.52
26438;BME280;14133;48.430;9.888;2022-07-04T13:36:16;95252.16;;;21.90;65.35
26438;BME280;14133;48.430;9.888;2022-07-04T13:45:58;95203.06;;;21.70;65.05
26438;BME280;14133;48.430;9.888;2022-07-04T13:55:39;95213.81;;;21.81;65.22
26438;BME280;14133;48.430;9.888;2022-07-04T14:05:20;95238.63;;;21.83;65.47
26438;BME280;14133;48.430;9.888;2022-07-04T14:15:00;95235.19;;;21.75;65.46
26438;BME280;14133;48.430;9.888;2022-07-04T14:24:41;95229.00;;;21.74;64.63
26438;BME280;14133;48.430;9.888;2022-07-04T14:34:21;95240.59;;;21.79;65.13
26438;BME280;14133;48.430;9.888;2022-07-04T14:44:01;95227.38;;;21.88;65.67
26438;BME280;14133;48.430;9.888;2022-07-04T14:53:42;95230.81;;;21.92;64.75
26438;BME280;14133;48.430;9.888;2022-07-04T15:03:22;95215.34;;;21.89;65.22
26438;BME280;14133;48.430;9.888;2022-07-04T15:13:03;95226.56;;;21.91;64.98
26438;BME280;14133;48.430;9.888;2022-07-04T15:22:43;95225.47;;;21.81;64.59
26438;BME280;14133;48.430;9.888;2022-07-04T15:32:42;95243.28;;;21.86;64.09
26438;BME280;14133;48.430;9.888;2022-07-04T15:42:22;95230.91;;;21.78;63.79
26438;BME280;14133;48.430;9.888;2022-07-04T15:52:04;95238.25;;;21.81;63.19
26438;BME280;14133;48.430;9.888;2022-07-04T16:01:45;95222.06;;;21.70;62.95
26438;BME280;14133;48.430;9.888;2022-07-04T16:11:25;95210.75;;;21.75;64.18
26438;BME280;14133;48.430;9.888;2022-07-04T16:21:05;95210.75;;;21.75;65.27
26438;BME280;14133;48.430;9.888;2022-07-04T16:30:46;95208.44;;;21.73;65.79
26438;BME280;14133;48.430;9.888;2022-07-04T16:40:26;95203.84;;;21.59;67.95
26438;BME280;14133;48.430;9.888;2022-07-04T16:50:07;95235.59;;;21.73;71.47
26438;BME280;14133;48.430;9.888;2022-07-04T16:59:48;95235.22;;;21.64;73.63
26438;BME280;14133;48.430;9.888;2022-07-04T17:09:28;95228.66;;;21.58;75.75
26438;BME280;14133;48.430;9.888;2022-07-04T17:19:09;95224.78;;;21.59;73.23
26438;BME280;14133;48.430;9.888;2022-07-04T17:28:49;95229.06;;;21.56;73.60
26438;BME280;14133;48.430;9.888;2022-07-04T17:38:30;95222.91;;;21.49;73.95
26438;BME280;14133;48.430;9.888;2022-07-04T17:48:10;95223.69;;;21.38;74.62
26438;BME280;14133;48.430;9.888;2022-07-04T17:57:51;95235.69;;;21.48;75.71
26438;BME280;14133;48.430;9.888;2022-07-04T18:07:33;95210.63;;;21.15;74.50
26438;BME280;14133;48.430;9.888;2022-07-04T18:17:14;95257.81;;;21.36;71.35
26438;BME280;14133;48.430;9.888;2022-07-04T18:26:54;95259.75;;;21.32;75.39
26438;BME280;14133;48.430;9.888;2022-07-04T18:36:35;95273.34;;;21.28;76.57
26438;BME280;14133;48.430;9.888;2022-07-04T18:46:15;95276.06;;;21.24;77.38
26438;BME280;14133;48.430;9.888;2022-07-04T18:55:57;95278.00;;;21.20;75.72
26438;BME280;14133;48.430;9.888;2022-07-04T19:05:38;95293.16;;;21.10;77.72
26438;BME280;14133;48.430;9.888;2022-07-04T19:15:20;95309.03;;;20.97;76.60
26438;BME280;14133;48.430;9.888;2022-07-04T19:25:02;95308.66;;;20.77;77.11
26438;BME280;14133;48.430;9.888;2022-07-04T19:34:43;95345.44;;;20.75;75.55
26438;BME280;14133;48.430;9.888;2022-07-04T19:44:24;95342.31;;;20.69;77.09
26438;BME280;14133;48.430;9.888;2022-07-04T19:54:04;95343.47;;;20.68;78.54
26438;BME280;14133;48.430;9.888;2022-07-04T20:03:45;95348.16;;;20.75;77.82
26438;BME280;14133;48.430;9.888;2022-07-04T20:13:25;95339.22;;;20.67;77.12
26438;BME280;14133;48.430;9.888;2022-07-04T20:23:06;95358.97;;;20.64;78.19
26438;BME280;14133;48.430;9.888;2022-07-04T20:32:47;95352.38;;;20.65;76.95
26438;BME280;14133;48.430;9.888;2022-07-04T20:42:27;95350.41;;;20.40;79.19
26438;BME280;14133;48.430;9.888;2022-07-04T20:52:09;95339.56;;;20.44;78.46
26438;BME280;14133;48.430;9.888;2022-07-04T21:01:50;95357.38;;;20.48;77.81
26438;BME280;14133;48.430;9.888;2022-07-04T21:11:30;95364.34;;;20.46;77.16
26438;BME280;14133;48.430;9.888;2022-07-04T21:21:11;95368.59;;;20.40;76.17
26438;BME280;14133;48.430;9.888;2022-07-04T21:30:51;95356.97;;;20.32;76.09
26438;BME280;14133;48.430;9.888;2022-07-04T21:40:35;95362.38;;;20.25;75.57
26438;BME280;14133;48.430;9.888;2022-07-04T21:50:16;95380.56;;;20.31;75.16
26438;BME280;14133;48.430;9.888;2022-07-04T21:59:56;95367.38;;;20.19;75.37
26438;BME280;14133;48.430;9.888;2022-07-04T22:09:38;95372.78;;;20.15;76.38
26438;BME280;14133;48.430;9.888;2022-07-04T22:19:18;95383.59;;;20.12;75.73
26438;BME280;14133;48.430;9.888;2022-07-04T22:28:59;95373.91;;;20.03;75.76
26438;BME280;14133;48.430;9.888;2022-07-04T22:38:39;95373.09;;;19.92;75.52
26438;BME280;14133;48.430;9.888;2022-07-04T22:48:20;95387.03;;;20.01;74.92
26438;BME280;14133;48.430;9.888;2022-07-04T22:58:00;95377.28;;;19.86;74.92
26438;BME280;14133;48.430;9.888;2022-07-04T23:07:41;95372.59;;;19.75;74.56
26438;BME280;14133;48.430;9.888;2022-07-04T23:17:21;95367.53;;;19.67;74.18
26438;BME280;14133;48.430;9.888;2022-07-04T23:27:02;95379.50;;;19.66;73.26
26438;BME280;14133;48.430;9.888;2022-07-04T23:36:43;95371.75;;;19.57;73.51
26438;BME280;14133;48.430;9.888;2022-07-04T23:46:23;95373.31;;;19.62;74.23
26438;BME280;14133;48.430;9.888;2022-07-04T23:56:04;95370.97;;;19.56;74.06
